createdAt,value
2018-03-14T00:00:13.303Z,6.95
2018-03-14T00:01:13.044Z,6.88
2018-03-14T00:02:12.771Z,6.81
2018-03-14T00:03:13.084Z,6.82
2018-03-14T00:04:12.799Z,6.7
2018-03-14T00:05:13.376Z,6.78
2018-03-14T00:06:13.097Z,6.89
2018-03-14T00:07:12.894Z,6.88
2018-03-14T00:08:13.158Z,7.07
2018-03-14T00:09:13.146Z,7.1
2018-03-14T00:10:13.151Z,7.21
2018-03-14T00:11:13.456Z,7.29
2018-03-14T00:12:13.190Z,7.33
2018-03-14T00:13:13.204Z,7.25
2018-03-14T00:14:13.635Z,7.33
2018-03-14T00:15:14.333Z,7.33
2018-03-14T00:16:13.522Z,7.11
2018-03-14T00:17:13.241Z,7.05
2018-03-14T00:18:12.988Z,7.07
2018-03-14T00:19:13.009Z,7.03
2018-03-14T00:20:13.644Z,6.95
2018-03-14T00:21:13.605Z,6.96
2018-03-14T00:22:13.063Z,6.97
2018-03-14T00:23:13.622Z,6.85
2018-03-14T00:24:13.094Z,6.95
2018-03-14T00:25:13.686Z,6.72
2018-03-14T00:26:13.663Z,6.69
2018-03-14T00:27:13.682Z,6.56
2018-03-14T00:28:13.740Z,6.48
2018-03-14T00:29:13.797Z,6.57
2018-03-14T00:30:13.973Z,6.54
2018-03-14T00:31:13.741Z,6.3
2018-03-14T00:32:13.213Z,6.31
2018-03-14T00:33:13.768Z,6.26
2018-03-14T00:34:13.515Z,6.3
2018-03-14T00:35:13.839Z,6.24
2018-03-14T00:36:13.867Z,6.31
2018-03-14T00:37:13.820Z,6.12
2018-03-14T00:38:14.194Z,6.26
2018-03-14T00:39:13.897Z,6.41
2018-03-14T00:40:13.905Z,6.44
2018-03-14T00:41:13.910Z,6.22
2018-03-14T00:42:13.899Z,6.49
2018-03-14T00:43:13.712Z,6.38
2018-03-14T00:44:13.922Z,6.36
2018-03-14T00:45:13.936Z,6.35
2018-03-14T00:46:14.376Z,6.31
2018-03-14T00:47:13.965Z,6.28
2018-03-14T00:48:13.972Z,6.22
2018-03-14T00:49:13.453Z,6.04
2018-03-14T00:50:14.011Z,6.24
2018-03-14T00:51:14.022Z,6.28
2018-03-14T00:52:14.050Z,6.17
2018-03-14T00:53:14.058Z,6.08
2018-03-14T00:54:14.764Z,6.08
2018-03-14T00:55:13.805Z,6.2
2018-03-14T00:56:13.831Z,6.46
2018-03-14T00:57:13.865Z,6.31
2018-03-14T00:58:14.112Z,6.26
2018-03-14T00:59:13.916Z,6.33
2018-03-14T01:00:13.873Z,6.59
2018-03-14T01:01:14.702Z,6.51
2018-03-14T01:02:14.920Z,6.31
2018-03-14T01:03:13.922Z,6.26
2018-03-14T01:04:14.203Z,6.19
2018-03-14T01:05:13.961Z,6.17
2018-03-14T01:06:13.964Z,6.16
2018-03-14T01:07:14.235Z,6.24
2018-03-14T01:08:14.253Z,6.27
2018-03-14T01:09:15.459Z,6.16
2018-03-14T01:10:14.285Z,6.26
2018-03-14T01:11:14.038Z,6.11
2018-03-14T01:12:14.336Z,6.16
2018-03-14T01:13:14.078Z,6.28
2018-03-14T01:14:14.075Z,6.04
2018-03-14T01:15:14.376Z,6.07
2018-03-14T01:16:14.433Z,5.98
2018-03-14T01:17:14.789Z,5.99
2018-03-14T01:18:14.409Z,6.02
2018-03-14T01:19:14.418Z,5.97
2018-03-14T01:20:14.169Z,6.11
2018-03-14T01:21:14.461Z,6.14
2018-03-14T01:22:14.493Z,6.19
2018-03-14T01:23:14.528Z,5.99
2018-03-14T01:24:14.494Z,6.01
2018-03-14T01:25:15.959Z,6.12
2018-03-14T01:26:14.541Z,6.09
2018-03-14T01:27:14.536Z,6.07
2018-03-14T01:28:14.282Z,6.12
2018-03-14T01:29:14.028Z,6.05
2018-03-14T01:30:14.332Z,6.07
2018-03-14T01:31:14.108Z,6.11
2018-03-14T01:32:14.768Z,6.12
2018-03-14T01:33:14.384Z,5.86
2018-03-14T01:34:14.629Z,5.91
2018-03-14T01:35:14.655Z,5.91
2018-03-14T01:36:14.398Z,5.97
2018-03-14T01:37:14.702Z,5.9
2018-03-14T01:38:14.696Z,5.99
2018-03-14T01:39:14.812Z,5.91
2018-03-14T01:40:15.013Z,5.84
2018-03-14T01:41:14.467Z,5.8
2018-03-14T01:42:14.476Z,5.64
2018-03-14T01:43:14.502Z,5.65
2018-03-14T01:44:14.780Z,5.68
2018-03-14T01:45:14.794Z,5.69
2018-03-14T01:46:14.577Z,5.72
2018-03-14T01:47:14.812Z,5.65
2018-03-14T01:48:15.812Z,5.71
2018-03-14T01:49:14.831Z,5.69
2018-03-14T01:50:14.877Z,5.69
2018-03-14T01:51:14.960Z,5.66
2018-03-14T01:52:14.629Z,5.69
2018-03-14T01:53:14.623Z,5.75
2018-03-14T01:54:14.922Z,5.75
2018-03-14T01:55:14.939Z,5.79
2018-03-14T01:56:15.418Z,5.97
2018-03-14T01:57:14.689Z,6.04
2018-03-14T01:58:14.711Z,6.04
2018-03-14T01:59:14.723Z,6.17
2018-03-14T02:00:14.468Z,6.08
2018-03-14T02:01:14.765Z,6.08
2018-03-14T02:02:15.053Z,5.97
2018-03-14T02:03:14.802Z,6.12
2018-03-14T02:04:15.129Z,5.87
2018-03-14T02:05:14.539Z,5.89
2018-03-14T02:06:14.824Z,5.91
2018-03-14T02:07:15.110Z,5.97
2018-03-14T02:08:15.133Z,6.08
2018-03-14T02:09:14.891Z,6.04
2018-03-14T02:10:15.137Z,6.01
2018-03-14T02:11:16.260Z,5.91
2018-03-14T02:12:14.929Z,5.76
2018-03-14T02:13:14.934Z,5.89
2018-03-14T02:14:15.205Z,6.04
2018-03-14T02:15:14.953Z,5.93
2018-03-14T02:16:15.221Z,5.98
2018-03-14T02:17:14.706Z,5.94
2018-03-14T02:18:15.267Z,6.04
2018-03-14T02:19:16.705Z,6.12
2018-03-14T02:20:15.083Z,6.09
2018-03-14T02:21:15.304Z,6.14
2018-03-14T02:22:15.316Z,6.14
2018-03-14T02:23:15.341Z,6.12
2018-03-14T02:24:15.344Z,6.14
2018-03-14T02:25:15.107Z,6.08
2018-03-14T02:26:15.099Z,6.12
2018-03-14T02:27:16.210Z,6.24
2018-03-14T02:28:15.410Z,6.33
2018-03-14T02:29:15.405Z,6.33
2018-03-14T02:30:15.441Z,6.26
2018-03-14T02:31:15.487Z,6.35
2018-03-14T02:32:15.180Z,6.24
2018-03-14T02:33:15.492Z,6.22
2018-03-14T02:34:15.830Z,6.31
2018-03-14T02:35:15.482Z,6.35
2018-03-14T02:36:15.240Z,6.2
2018-03-14T02:37:15.521Z,6.2
2018-03-14T02:38:15.266Z,6.3
2018-03-14T02:39:15.279Z,6.22
2018-03-14T02:40:15.571Z,6.26
2018-03-14T02:41:15.577Z,6.11
2018-03-14T02:42:15.062Z,6.19
2018-03-14T02:43:15.610Z,6.26
2018-03-14T02:44:15.628Z,6.16
2018-03-14T02:45:15.613Z,6.2
2018-03-14T02:46:15.118Z,6.3
2018-03-14T02:47:15.387Z,6.28
2018-03-14T02:48:15.146Z,6.26
2018-03-14T02:49:15.665Z,6.28
2018-03-14T02:50:15.428Z,6.38
2018-03-14T02:51:15.698Z,6.31
2018-03-14T02:52:15.508Z,6.35
2018-03-14T02:53:15.744Z,6.45
2018-03-14T02:54:15.744Z,6.45
2018-03-14T02:55:15.769Z,6.48
2018-03-14T02:56:15.773Z,6.49
2018-03-14T02:57:15.539Z,6.41
2018-03-14T02:58:15.795Z,6.33
2018-03-14T02:59:15.813Z,6.26
2018-03-14T03:00:15.824Z,6.24
2018-03-14T03:01:15.590Z,6.27
2018-03-14T03:02:15.601Z,6.11
2018-03-14T03:03:15.611Z,6.02
2018-03-14T03:04:15.879Z,6.09
2018-03-14T03:05:15.650Z,6.01
2018-03-14T03:06:15.653Z,5.99
2018-03-14T03:07:15.925Z,6.11
2018-03-14T03:08:15.941Z,6.05
2018-03-14T03:09:15.450Z,6.14
2018-03-14T03:10:15.972Z,6.02
2018-03-14T03:11:15.780Z,5.94
2018-03-14T03:12:15.757Z,6.05
2018-03-14T03:13:16.022Z,6.01
2018-03-14T03:14:16.025Z,6.11
2018-03-14T03:15:16.035Z,5.94
2018-03-14T03:16:15.837Z,6.04
2018-03-14T03:17:15.814Z,6.01
2018-03-14T03:18:16.082Z,6.12
2018-03-14T03:19:16.099Z,6.02
2018-03-14T03:20:16.119Z,5.97
2018-03-14T03:21:16.134Z,5.93
2018-03-14T03:22:15.884Z,5.98
2018-03-14T03:23:16.158Z,6.05
2018-03-14T03:24:16.256Z,6.11
2018-03-14T03:25:16.203Z,5.99
2018-03-14T03:26:16.254Z,5.89
2018-03-14T03:27:16.261Z,5.76
2018-03-14T03:28:16.284Z,5.76
2018-03-14T03:29:15.983Z,5.8
2018-03-14T03:30:16.330Z,5.73
2018-03-14T03:31:16.273Z,5.8
2018-03-14T03:32:16.280Z,5.76
2018-03-14T03:33:16.294Z,5.86
2018-03-14T03:34:16.315Z,5.82
2018-03-14T03:35:16.315Z,5.9
2018-03-14T03:36:16.077Z,5.93
2018-03-14T03:37:16.346Z,6.01
2018-03-14T03:38:16.364Z,6.16
2018-03-14T03:39:16.125Z,6.08
2018-03-14T03:40:16.385Z,6.14
2018-03-14T03:41:16.152Z,6.26
2018-03-14T03:42:16.208Z,6.28
2018-03-14T03:43:16.438Z,6.26
2018-03-14T03:44:16.192Z,6.26
2018-03-14T03:45:16.202Z,6.27
2018-03-14T03:46:16.474Z,6.27
2018-03-14T03:47:16.230Z,6.14
2018-03-14T03:48:16.243Z,6.01
2018-03-14T03:49:16.006Z,6.12
2018-03-14T03:50:16.271Z,6.07
2018-03-14T03:51:16.300Z,6.27
2018-03-14T03:52:16.532Z,6.26
2018-03-14T03:53:16.554Z,6.26
2018-03-14T03:54:16.560Z,6.36
2018-03-14T03:55:16.329Z,6.12
2018-03-14T03:56:16.600Z,6.24
2018-03-14T03:57:16.653Z,6.2
2018-03-14T03:58:16.116Z,6.28
2018-03-14T03:59:16.408Z,6.31
2018-03-14T04:00:16.145Z,6.36
2018-03-14T04:01:16.658Z,6.38
2018-03-14T04:02:16.430Z,6.12
2018-03-14T04:03:16.690Z,6.19
2018-03-14T04:04:16.470Z,6.31
2018-03-14T04:05:16.735Z,6.38
2018-03-14T04:06:16.498Z,6.28
2018-03-14T04:07:16.520Z,6.44
2018-03-14T04:08:16.777Z,6.46
2018-03-14T04:09:16.789Z,6.56
2018-03-14T04:10:16.806Z,6.51
2018-03-14T04:11:16.565Z,6.56
2018-03-14T04:12:16.600Z,6.59
2018-03-14T04:13:17.901Z,6.41
2018-03-14T04:14:16.865Z,6.38
2018-03-14T04:15:16.625Z,6.2
2018-03-14T04:16:16.894Z,6.28
2018-03-14T04:17:16.668Z,6.31
2018-03-14T04:18:16.923Z,6.27
2018-03-14T04:19:16.678Z,6.09
2018-03-14T04:20:16.713Z,6.19
2018-03-14T04:21:16.709Z,6.09
2018-03-14T04:22:16.990Z,6.09
2018-03-14T04:23:16.994Z,6.11
2018-03-14T04:24:17.006Z,6.09
2018-03-14T04:25:17.018Z,6.05
2018-03-14T04:26:17.042Z,6.14
2018-03-14T04:27:16.793Z,6.27
2018-03-14T04:28:16.812Z,6.27
2018-03-14T04:29:17.084Z,6.38
2018-03-14T04:30:16.843Z,6.31
2018-03-14T04:31:17.108Z,6.38
2018-03-14T04:32:17.116Z,6.44
2018-03-14T04:33:17.184Z,6.44
2018-03-14T04:34:17.149Z,6.44
2018-03-14T04:35:16.909Z,6.51
2018-03-14T04:36:17.179Z,6.45
2018-03-14T04:37:17.199Z,6.52
2018-03-14T04:38:16.950Z,6.52
2018-03-14T04:39:17.221Z,6.51
2018-03-14T04:40:17.237Z,6.57
2018-03-14T04:41:17.270Z,6.59
2018-03-14T04:42:17.012Z,6.45
2018-03-14T04:43:17.276Z,6.33
2018-03-14T04:44:17.277Z,6.39
2018-03-14T04:45:17.041Z,6.45
2018-03-14T04:46:17.051Z,6.48
2018-03-14T04:47:17.172Z,6.39
2018-03-14T04:48:17.087Z,6.35
2018-03-14T04:49:17.357Z,6.46
2018-03-14T04:50:17.365Z,6.52
2018-03-14T04:51:17.128Z,6.45
2018-03-14T04:52:17.462Z,6.59
2018-03-14T04:53:17.159Z,6.59
2018-03-14T04:54:17.423Z,6.56
2018-03-14T04:55:17.183Z,6.62
2018-03-14T04:56:17.206Z,6.52
2018-03-14T04:57:17.468Z,6.59
2018-03-14T04:58:17.224Z,6.75
2018-03-14T04:59:17.250Z,6.6
2018-03-14T05:00:17.525Z,6.57
2018-03-14T05:01:17.278Z,6.49
2018-03-14T05:02:17.328Z,6.42
2018-03-14T05:03:17.566Z,6.41
2018-03-14T05:04:17.575Z,6.49
2018-03-14T05:05:17.600Z,6.36
2018-03-14T05:06:17.099Z,6.24
2018-03-14T05:07:17.420Z,6.38
2018-03-14T05:08:17.639Z,6.38
2018-03-14T05:09:17.646Z,6.36
2018-03-14T05:10:17.690Z,6.38
2018-03-14T05:11:17.678Z,6.36
2018-03-14T05:12:17.695Z,6.28
2018-03-14T05:13:17.707Z,6.31
2018-03-14T05:14:17.874Z,6.28
2018-03-14T05:15:17.477Z,6.36
2018-03-14T05:16:17.497Z,6.26
2018-03-14T05:17:17.767Z,6.35
2018-03-14T05:18:17.523Z,6.28
2018-03-14T05:19:17.536Z,6.49
2018-03-14T05:20:17.549Z,6.44
2018-03-14T05:21:17.318Z,6.48
2018-03-14T05:22:17.907Z,6.56
2018-03-14T05:23:17.857Z,6.45
2018-03-14T05:24:17.876Z,6.36
2018-03-14T05:25:17.882Z,6.28
2018-03-14T05:26:17.898Z,6.31
2018-03-14T05:27:17.657Z,6.38
2018-03-14T05:28:17.667Z,6.45
2018-03-14T05:29:17.937Z,6.45
2018-03-14T05:30:17.953Z,6.49
2018-03-14T05:31:17.969Z,6.48
2018-03-14T05:32:17.977Z,6.28
2018-03-14T05:33:18.001Z,6.33
2018-03-14T05:34:17.753Z,6.27
2018-03-14T05:35:17.770Z,6.26
2018-03-14T05:36:17.531Z,6.24
2018-03-14T05:37:18.055Z,6.09
2018-03-14T05:38:17.560Z,6.3
2018-03-14T05:39:17.580Z,6.31
2018-03-14T05:40:18.102Z,6.33
2018-03-14T05:41:18.159Z,6.31
2018-03-14T05:42:18.118Z,6.42
2018-03-14T05:43:18.182Z,6.51
2018-03-14T05:44:18.159Z,6.46
2018-03-14T05:45:18.163Z,6.44
2018-03-14T05:46:17.671Z,6.33
2018-03-14T05:47:17.938Z,6.38
2018-03-14T05:48:17.701Z,6.28
2018-03-14T05:49:18.225Z,6.24
2018-03-14T05:50:17.985Z,6.3
2018-03-14T05:51:18.247Z,6.22
2018-03-14T05:52:18.265Z,6.27
2018-03-14T05:53:18.289Z,6.26
2018-03-14T05:54:18.297Z,6.26
2018-03-14T05:55:18.309Z,6.14
2018-03-14T05:56:18.075Z,6.05
2018-03-14T05:57:18.339Z,6.08
2018-03-14T05:58:18.405Z,6.09
2018-03-14T05:59:18.362Z,6.14
2018-03-14T06:00:18.130Z,6.12
2018-03-14T06:01:18.150Z,6.11
2018-03-14T06:02:18.413Z,5.97
2018-03-14T06:03:18.424Z,5.93
2018-03-14T06:04:18.442Z,6.08
2018-03-14T06:05:18.203Z,6.14
2018-03-14T06:06:18.473Z,6.04
2018-03-14T06:07:17.976Z,6.04
2018-03-14T06:08:18.262Z,6.16
2018-03-14T06:09:18.255Z,6.39
2018-03-14T06:10:18.526Z,6.48
2018-03-14T06:11:18.284Z,6.26
2018-03-14T06:12:18.559Z,6.28
2018-03-14T06:13:18.579Z,6.31
2018-03-14T06:14:18.601Z,6.19
2018-03-14T06:15:18.341Z,6.12
2018-03-14T06:16:18.662Z,6.11
2018-03-14T06:17:18.632Z,6.24
2018-03-14T06:18:18.636Z,6.31
2018-03-14T06:19:18.401Z,6.39
2018-03-14T06:20:18.413Z,6.38
2018-03-14T06:21:18.680Z,6.3
2018-03-14T06:22:18.701Z,6.3
2018-03-14T06:23:18.711Z,6.28
2018-03-14T06:24:18.722Z,6.05
2018-03-14T06:25:18.750Z,6.19
2018-03-14T06:26:18.758Z,6.31
2018-03-14T06:27:18.777Z,6.33
2018-03-14T06:28:18.782Z,6.35
2018-03-14T06:29:18.795Z,6.41
2018-03-14T06:30:18.300Z,6.38
2018-03-14T06:31:18.825Z,6.45
2018-03-14T06:32:18.886Z,6.59
2018-03-14T06:33:18.598Z,6.6
2018-03-14T06:34:18.866Z,6.57
2018-03-14T06:35:18.893Z,6.62
2018-03-14T06:36:18.641Z,6.74
2018-03-14T06:37:18.910Z,6.74
2018-03-14T06:38:18.920Z,6.57
2018-03-14T06:39:18.932Z,6.57
2018-03-14T06:40:18.694Z,6.49
2018-03-14T06:41:18.962Z,6.64
2018-03-14T06:42:18.980Z,6.56
2018-03-14T06:43:19.010Z,6.24
2018-03-14T06:44:18.506Z,6.27
2018-03-14T06:45:19.024Z,6.39
2018-03-14T06:46:18.791Z,6.26
2018-03-14T06:47:19.105Z,6.14
2018-03-14T06:48:18.815Z,6.19
2018-03-14T06:49:19.082Z,6.12
2018-03-14T06:50:19.101Z,5.84
2018-03-14T06:51:19.116Z,5.69
2018-03-14T06:52:18.876Z,5.9
2018-03-14T06:53:18.883Z,5.93
2018-03-14T06:54:18.898Z,6.02
2018-03-14T06:55:19.167Z,5.89
2018-03-14T06:56:19.191Z,5.94
2018-03-14T06:57:19.197Z,5.9
2018-03-14T06:58:19.212Z,5.93
2018-03-14T06:59:18.970Z,5.91
2018-03-14T07:00:19.245Z,5.98
2018-03-14T07:01:19.260Z,6.05
2018-03-14T07:02:19.066Z,6.02
2018-03-14T07:03:19.026Z,6.05
2018-03-14T07:04:19.045Z,6.19
2018-03-14T07:05:19.309Z,6.2
2018-03-14T07:06:19.080Z,6.22
2018-03-14T07:07:19.084Z,6.19
2018-03-14T07:08:19.351Z,6.11
2018-03-14T07:09:19.116Z,6.11
2018-03-14T07:10:19.389Z,6.08
2018-03-14T07:11:19.395Z,6.05
2018-03-14T07:12:19.415Z,5.99
2018-03-14T07:13:19.440Z,6.05
2018-03-14T07:14:19.444Z,6.01
2018-03-14T07:15:19.198Z,6.05
2018-03-14T07:16:19.198Z,5.98
2018-03-14T07:17:19.471Z,5.98
2018-03-14T07:18:19.480Z,6.08
2018-03-14T07:19:19.247Z,6.02
2018-03-14T07:20:19.566Z,6.01
2018-03-14T07:21:19.518Z,6.07
2018-03-14T07:22:19.290Z,6.16
2018-03-14T07:23:19.584Z,6.11
2018-03-14T07:24:19.577Z,6.24
2018-03-14T07:25:19.352Z,6.33
2018-03-14T07:26:19.607Z,6.36
2018-03-14T07:27:19.638Z,6.35
2018-03-14T07:28:19.637Z,6.38
2018-03-14T07:29:19.651Z,6.42
2018-03-14T07:30:19.665Z,6.46
2018-03-14T07:31:19.424Z,6.67
2018-03-14T07:32:19.436Z,6.74
2018-03-14T07:33:19.450Z,6.87
2018-03-14T07:34:19.214Z,6.95
2018-03-14T07:35:19.483Z,7.06
2018-03-14T07:36:19.790Z,6.99
2018-03-14T07:37:19.541Z,6.81
2018-03-14T07:38:19.259Z,6.95
2018-03-14T07:39:19.792Z,6.88
2018-03-14T07:40:19.812Z,6.85
2018-03-14T07:41:19.823Z,6.95
2018-03-14T07:42:19.586Z,7.03
2018-03-14T07:43:19.854Z,7.13
2018-03-14T07:44:19.613Z,7.25
2018-03-14T07:45:19.885Z,7.21
2018-03-14T07:46:19.919Z,7.39
2018-03-14T07:47:19.674Z,7.25
2018-03-14T07:48:19.921Z,7.29
2018-03-14T07:49:19.951Z,7.15
2018-03-14T07:50:19.702Z,7.28
2018-03-14T07:51:19.712Z,7.15
2018-03-14T07:52:19.785Z,6.81
2018-03-14T07:53:19.743Z,6.89
2018-03-14T07:54:19.772Z,6.78
2018-03-14T07:55:20.051Z,6.63
2018-03-14T07:56:19.794Z,6.48
2018-03-14T07:57:20.054Z,6.49
2018-03-14T07:58:20.071Z,6.57
2018-03-14T07:59:19.843Z,6.56
2018-03-14T08:00:20.108Z,6.7
2018-03-14T08:01:19.853Z,6.81
2018-03-14T08:02:20.114Z,6.84
2018-03-14T08:03:19.877Z,6.64
2018-03-14T08:04:19.887Z,6.66
2018-03-14T08:05:19.903Z,6.87
2018-03-14T08:06:20.173Z,6.96
2018-03-14T08:07:19.931Z,6.99
2018-03-14T08:08:20.255Z,7.1
2018-03-14T08:09:19.720Z,7.18
2018-03-14T08:10:20.248Z,7.1
2018-03-14T08:11:20.006Z,6.96
2018-03-14T08:12:20.284Z,7.11
2018-03-14T08:13:20.340Z,7.29
2018-03-14T08:14:20.310Z,7.24
2018-03-14T08:15:20.064Z,7.2
2018-03-14T08:16:20.361Z,7.17
2018-03-14T08:17:20.357Z,7.2
2018-03-14T08:18:20.112Z,7.28
2018-03-14T08:19:20.125Z,7.31
2018-03-14T08:20:20.479Z,7.29
2018-03-14T08:21:20.435Z,7.18
2018-03-14T08:22:20.425Z,7.15
2018-03-14T08:23:20.239Z,7.11
2018-03-14T08:24:20.554Z,7.15
2018-03-14T08:25:20.466Z,7.13
2018-03-14T08:26:20.483Z,7.11
2018-03-14T08:27:20.241Z,7.14
2018-03-14T08:28:20.267Z,7.15
2018-03-14T08:29:20.019Z,7.05
2018-03-14T08:30:20.551Z,7.17
2018-03-14T08:31:20.049Z,7.23
2018-03-14T08:32:20.321Z,7.38
2018-03-14T08:33:20.605Z,7.38
2018-03-14T08:34:20.373Z,7.24
2018-03-14T08:35:20.371Z,7.29
2018-03-14T08:36:20.126Z,7.32
2018-03-14T08:37:20.460Z,7.36
2018-03-14T08:38:20.410Z,7.23
2018-03-14T08:39:20.883Z,7.21
2018-03-14T08:40:20.696Z,7.35
2018-03-14T08:41:20.705Z,7.28
2018-03-14T08:42:20.471Z,7.28
2018-03-14T08:43:20.484Z,7.39
2018-03-14T08:44:20.750Z,7.24
2018-03-14T08:45:20.533Z,7.14
2018-03-14T08:46:20.527Z,7.11
2018-03-14T08:47:20.800Z,7.07
2018-03-14T08:48:20.798Z,7.1
2018-03-14T08:49:20.812Z,7.13
2018-03-14T08:50:20.912Z,7.13
2018-03-14T08:51:20.601Z,7.1
2018-03-14T08:52:20.871Z,7.21
2018-03-14T08:53:20.881Z,7.28
2018-03-14T08:54:21.059Z,7.28
2018-03-14T08:55:20.915Z,7.32
2018-03-14T08:56:20.671Z,7.4
2018-03-14T08:57:20.940Z,7.45
2018-03-14T08:58:20.450Z,7.43
2018-03-14T08:59:20.973Z,7.31
2018-03-14T09:00:21.004Z,7.18
2018-03-14T09:01:20.748Z,7.17
2018-03-14T09:02:20.768Z,7.14
2018-03-14T09:03:21.047Z,7.02
2018-03-14T09:04:21.049Z,6.84
2018-03-14T09:05:21.073Z,6.95
2018-03-14T09:06:20.830Z,6.88
2018-03-14T09:07:20.870Z,7.15
2018-03-14T09:08:21.108Z,7.11
2018-03-14T09:09:21.174Z,7.35
2018-03-14T09:10:20.892Z,7.38
2018-03-14T09:11:20.900Z,7.42
2018-03-14T09:12:20.913Z,7.4
2018-03-14T09:13:20.930Z,7.48
2018-03-14T09:14:21.183Z,7.57
2018-03-14T09:15:21.223Z,7.4
2018-03-14T09:16:21.227Z,7.43
2018-03-14T09:17:20.986Z,7.57
2018-03-14T09:18:21.006Z,7.69
2018-03-14T09:19:21.037Z,7.87
2018-03-14T09:20:21.295Z,7.91
2018-03-14T09:21:21.363Z,7.91
2018-03-14T09:22:21.318Z,8.01
2018-03-14T09:23:21.077Z,8.2
2018-03-14T09:24:21.120Z,8.28
2018-03-14T09:25:21.419Z,8.38
2018-03-14T09:26:21.128Z,8.48
2018-03-14T09:27:21.141Z,8.55
2018-03-14T09:28:21.154Z,8.67
2018-03-14T09:29:21.516Z,8.74
2018-03-14T09:30:21.448Z,8.84
2018-03-14T09:31:21.459Z,8.97
2018-03-14T09:32:20.972Z,9.02
2018-03-14T09:33:21.566Z,9.16
2018-03-14T09:34:21.251Z,9.29
2018-03-14T09:35:21.518Z,9.4
2018-03-14T09:36:21.565Z,9.41
2018-03-14T09:37:21.554Z,9.4
2018-03-14T09:38:21.062Z,9.36
2018-03-14T09:39:21.342Z,9.51
2018-03-14T09:40:21.348Z,9.55
2018-03-14T09:41:21.620Z,9.65
2018-03-14T09:42:21.634Z,9.84
2018-03-14T09:43:21.404Z,9.86
2018-03-14T09:44:21.814Z,9.8
2018-03-14T09:45:21.770Z,9.86
2018-03-14T09:46:21.190Z,9.83
2018-03-14T09:47:21.787Z,9.83
2018-03-14T09:48:21.478Z,9.79
2018-03-14T09:49:21.756Z,9.66
2018-03-14T09:50:21.512Z,9.73
2018-03-14T09:51:21.784Z,9.83
2018-03-14T09:52:21.811Z,9.91
2018-03-14T09:53:21.564Z,10.01
2018-03-14T09:54:21.836Z,9.99
2018-03-14T09:55:21.345Z,9.99
2018-03-14T09:56:21.886Z,10.02
2018-03-14T09:57:21.377Z,10.09
2018-03-14T09:58:21.398Z,9.97
2018-03-14T09:59:21.666Z,9.91
2018-03-14T10:00:21.936Z,9.95
2018-03-14T10:01:21.700Z,9.97
2018-03-14T10:02:21.954Z,9.86
2018-03-14T10:03:21.998Z,9.62
2018-03-14T10:04:21.786Z,9.5
2018-03-14T10:05:21.761Z,9.51
2018-03-14T10:06:22.026Z,9.58
2018-03-14T10:07:21.788Z,9.56
2018-03-14T10:08:21.811Z,9.65
2018-03-14T10:09:22.211Z,9.66
2018-03-14T10:10:22.105Z,9.68
2018-03-14T10:11:22.130Z,9.68
2018-03-14T10:12:21.887Z,9.59
2018-03-14T10:13:21.899Z,9.62
2018-03-14T10:14:22.178Z,9.68
2018-03-14T10:15:21.927Z,9.65
2018-03-14T10:16:21.944Z,9.51
2018-03-14T10:17:21.963Z,9.4
2018-03-14T10:18:22.242Z,9.41
2018-03-14T10:19:22.359Z,9.25
2018-03-14T10:20:22.274Z,9.4
2018-03-14T10:21:22.292Z,9.32
2018-03-14T10:22:22.102Z,9.39
2018-03-14T10:23:22.323Z,9.22
2018-03-14T10:24:22.085Z,9.31
2018-03-14T10:25:22.100Z,9.34
2018-03-14T10:26:22.135Z,9.41
2018-03-14T10:27:22.136Z,9.43
2018-03-14T10:28:22.417Z,9.41
2018-03-14T10:29:21.959Z,9.4
2018-03-14T10:30:22.180Z,9.43
2018-03-14T10:31:22.453Z,9.41
2018-03-14T10:32:22.210Z,9.55
2018-03-14T10:33:22.309Z,9.54
2018-03-14T10:34:22.558Z,9.47
2018-03-14T10:35:22.666Z,9.44
2018-03-14T10:36:22.530Z,9.4
2018-03-14T10:37:22.553Z,9.23
2018-03-14T10:38:22.320Z,9.23
2018-03-14T10:39:22.583Z,9.26
2018-03-14T10:40:22.351Z,9.36
2018-03-14T10:41:22.369Z,9.41
2018-03-14T10:42:22.632Z,9.4
2018-03-14T10:43:22.652Z,9.32
2018-03-14T10:44:22.674Z,9.37
2018-03-14T10:45:22.707Z,9.48
2018-03-14T10:46:22.700Z,9.55
2018-03-14T10:47:22.719Z,9.68
2018-03-14T10:48:22.738Z,9.8
2018-03-14T10:49:22.797Z,9.82
2018-03-14T10:50:22.769Z,9.89
2018-03-14T10:51:22.780Z,9.99
2018-03-14T10:52:22.796Z,10.02
2018-03-14T10:53:22.569Z,10.13
2018-03-14T10:54:22.884Z,10.22
2018-03-14T10:55:22.884Z,10.38
2018-03-14T10:56:22.612Z,10.46
2018-03-14T10:57:22.636Z,10.46
2018-03-14T10:58:22.643Z,10.59
2018-03-14T10:59:22.658Z,10.63
2018-03-14T11:00:22.676Z,10.75
2018-03-14T11:01:22.944Z,10.72
2018-03-14T11:02:22.716Z,10.86
2018-03-14T11:03:22.987Z,10.87
2018-03-14T11:04:23.002Z,10.96
2018-03-14T11:05:23.025Z,11.11
2018-03-14T11:06:23.037Z,11.44
2018-03-14T11:07:23.064Z,11.47
2018-03-14T11:08:22.824Z,11.65
2018-03-14T11:09:22.893Z,11.72
2018-03-14T11:10:23.117Z,11.87
2018-03-14T11:11:22.881Z,11.94
2018-03-14T11:12:23.155Z,11.97
2018-03-14T11:13:23.174Z,12.18
2018-03-14T11:14:22.933Z,12.22
2018-03-14T11:15:22.951Z,12.53
2018-03-14T11:16:23.227Z,12.61
2018-03-14T11:17:22.990Z,12.45
2018-03-14T11:18:23.011Z,12.6
2018-03-14T11:19:23.288Z,12.62
2018-03-14T11:20:23.115Z,12.64
2018-03-14T11:21:23.324Z,12.82
2018-03-14T11:22:23.344Z,13
2018-03-14T11:23:23.108Z,13.03
2018-03-14T11:24:23.383Z,12.97
2018-03-14T11:25:23.454Z,12.97
2018-03-14T11:26:23.171Z,13.09
2018-03-14T11:27:23.204Z,13.22
2018-03-14T11:28:23.465Z,13.23
2018-03-14T11:29:23.488Z,13.28
2018-03-14T11:30:23.251Z,13.22
2018-03-14T11:31:23.029Z,13.15
2018-03-14T11:32:23.548Z,13.15
2018-03-14T11:33:23.314Z,13.16
2018-03-14T11:34:23.594Z,12.97
2018-03-14T11:35:23.605Z,12.35
2018-03-14T11:36:23.632Z,12.22
2018-03-14T11:37:23.393Z,12.4
2018-03-14T11:38:23.670Z,12.49
2018-03-14T11:39:23.708Z,12.57
2018-03-14T11:40:23.725Z,12.58
2018-03-14T11:41:23.724Z,12.58
2018-03-14T11:42:23.884Z,12.64
2018-03-14T11:43:23.771Z,12.46
2018-03-14T11:44:23.802Z,12.4
2018-03-14T11:45:23.564Z,12.36
2018-03-14T11:46:23.573Z,12.79
2018-03-14T11:47:23.833Z,13.35
2018-03-14T11:48:23.846Z,13.96
2018-03-14T11:49:23.867Z,14.66
2018-03-14T11:50:23.895Z,15.15
2018-03-14T11:51:23.967Z,15.73
2018-03-14T11:52:23.697Z,16.26
2018-03-14T11:53:23.723Z,16.57
2018-03-14T11:54:23.744Z,16.71
2018-03-14T11:55:23.776Z,16.64
2018-03-14T11:56:24.050Z,16.57
2018-03-14T11:57:24.159Z,16.56
2018-03-14T11:58:24.120Z,16.39
2018-03-14T11:59:24.098Z,16.32
2018-03-14T12:00:23.872Z,16.38
2018-03-14T12:01:24.152Z,16.31
2018-03-14T12:02:24.194Z,16.23
2018-03-14T12:03:24.060Z,16.23
2018-03-14T12:04:23.730Z,15.98
2018-03-14T12:05:24.264Z,15.57
2018-03-14T12:06:23.788Z,15.46
2018-03-14T12:07:24.356Z,15.43
2018-03-14T12:08:24.351Z,15.67
2018-03-14T12:09:24.364Z,15.8
2018-03-14T12:10:24.424Z,16.17
2018-03-14T12:11:24.151Z,16.68
2018-03-14T12:12:24.213Z,17.11
2018-03-14T12:13:24.248Z,17.71
2018-03-14T12:14:24.485Z,18.28
2018-03-14T12:15:24.247Z,18.77
2018-03-14T12:16:24.295Z,18.9
2018-03-14T12:17:24.562Z,18.9
2018-03-14T12:18:24.323Z,19.07
2018-03-14T12:19:24.086Z,19.62
2018-03-14T12:20:24.630Z,19.76
2018-03-14T12:21:24.428Z,19.4
2018-03-14T12:22:24.687Z,19.18
2018-03-14T12:23:24.461Z,19.09
2018-03-14T12:24:24.494Z,18.58
2018-03-14T12:25:24.770Z,18.53
2018-03-14T12:26:24.578Z,18.15
2018-03-14T12:27:24.575Z,17.46
2018-03-14T12:28:24.595Z,16.83
2018-03-14T12:29:24.668Z,16.65
2018-03-14T12:30:24.651Z,16.83
2018-03-14T12:31:24.927Z,16.72
2018-03-14T12:32:24.952Z,16.75
2018-03-14T12:33:24.774Z,16.72
2018-03-14T12:34:24.759Z,16.94
2018-03-14T12:35:24.775Z,17.23
2018-03-14T12:36:24.794Z,17.38
2018-03-14T12:37:24.819Z,17.39
2018-03-14T12:38:25.110Z,17.27
2018-03-14T12:39:24.619Z,17.19
2018-03-14T12:40:24.894Z,17.26
2018-03-14T12:41:24.685Z,17.41
2018-03-14T12:42:25.226Z,17.57
2018-03-14T12:43:25.244Z,17.98
2018-03-14T12:44:25.326Z,17.95
2018-03-14T12:45:25.041Z,17.85
2018-03-14T12:46:25.328Z,17.34
2018-03-14T12:47:25.350Z,17.05
2018-03-14T12:48:25.378Z,16.66
2018-03-14T12:49:25.161Z,16.6
2018-03-14T12:50:24.972Z,16.64
2018-03-14T12:51:25.200Z,16.66
2018-03-14T12:52:25.482Z,16.51
2018-03-14T12:53:25.005Z,16.53
2018-03-14T12:54:25.529Z,16.71
2018-03-14T12:55:25.754Z,16.49
2018-03-14T12:56:25.586Z,16.71
2018-03-14T12:57:25.348Z,16.66
2018-03-14T12:58:25.622Z,16.69
2018-03-14T12:59:25.664Z,16.78
2018-03-14T13:00:25.433Z,16.75
2018-03-14T13:01:25.456Z,16.56
2018-03-14T13:02:25.789Z,16.96
2018-03-14T13:03:25.812Z,17.12
2018-03-14T13:04:25.534Z,17.22
2018-03-14T13:05:25.559Z,17.23
2018-03-14T13:06:25.581Z,17.04
2018-03-14T13:07:25.861Z,16.84
2018-03-14T13:08:25.881Z,16.6
2018-03-14T13:09:25.912Z,16.96
2018-03-14T13:10:25.936Z,17.52
2018-03-14T13:11:25.705Z,18.22
2018-03-14T13:12:25.960Z,18.7
2018-03-14T13:13:25.990Z,19.04
2018-03-14T13:14:26.012Z,19.85
2018-03-14T13:15:25.807Z,20.58